Time;durP1;ratioP1;P1;durP2;ratioP2;P2;SDS_P1;SDS_P2;PMS_P1;PMS_P2;Temp;Humidity;BMP_temperature;BMP_pressure;BME280_temperature;BME280_humidity;BME280_pressure;Samples;Min_cycle;Max_cycle;Signal;HPM_P1;HPM_P2
2022/09/18 00:01:46;;;;;;;9.10;5.00;;;;;;;10.48;95.30;97672.27;2173470;82;20968;-84
2022/09/18 00:04:47;;;;;;;7.40;4.87;;;;;;;10.50;95.38;97673.56;2173500;81;20893;-84
2022/09/18 00:07:47;;;;;;;10.43;5.17;;;;;;;10.47;95.56;97665.75;2172931;81;21388;-84
2022/09/18 00:10:48;;;;;;;14.57;5.40;;;;;;;10.45;95.47;97662.29;2173185;81;20945;-83
2022/09/18 00:13:48;;;;;;;12.77;4.70;;;;;;;10.43;95.68;97655.78;2173262;81;20980;-83
2022/09/18 00:16:49;;;;;;;10.60;5.30;;;;;;;10.40;96.04;97655.80;2173454;81;20928;-83
2022/09/18 00:19:49;;;;;;;8.00;4.33;;;;;;;10.38;96.18;97660.56;2173318;81;20965;-84
2022/09/18 00:22:49;;;;;;;5.60;4.50;;;;;;;10.36;96.00;97655.36;2173267;81;20933;-83
2022/09/18 00:25:50;;;;;;;9.70;4.87;;;;;;;10.37;96.27;97654.48;2173293;82;20964;-83
2022/09/18 00:28:50;;;;;;;11.83;4.50;;;;;;;10.36;97.24;97659.70;2173456;81;20937;-83
2022/09/18 00:31:50;;;;;;;11.37;4.50;;;;;;;10.32;97.15;97656.25;2173154;81;20922;-84
2022/09/18 00:34:51;;;;;;;9.70;4.50;;;;;;;10.31;97.06;97652.34;2173239;81;20961;-84
2022/09/18 00:37:51;;;;;;;8.47;4.97;;;;;;;10.30;97.24;97653.22;2173091;81;20965;-84
2022/09/18 00:40:52;;;;;;;11.00;4.43;;;;;;;10.29;97.28;97659.31;2173266;81;20929;-84
2022/09/18 00:43:52;;;;;;;11.53;5.17;;;;;;;10.27;97.01;97651.94;2173295;81;20922;-84
2022/09/18 00:46:53;;;;;;;9.97;4.80;;;;;;;10.25;97.42;97652.38;2173397;81;20937;-84
2022/09/18 00:49:53;;;;;;;10.17;5.13;;;;;;;10.21;97.45;97655.01;2173339;81;20937;-84
2022/09/18 00:52:53;;;;;;;12.33;4.90;;;;;;;10.21;97.65;97648.48;2173298;81;20989;-83
2022/09/18 00:55:54;;;;;;;13.43;4.77;;;;;;;10.20;97.90;97649.36;2173253;81;20956;-84
2022/09/18 00:58:54;;;;;;;11.27;4.63;;;;;;;10.18;97.92;97642.39;2173382;81;20943;-83
2022/09/18 01:01:55;;;;;;;12.93;4.57;;;;;;;10.18;98.23;97644.56;2173019;82;20984;-84
2022/09/18 01:04:55;;;;;;;9.43;4.73;;;;;;;10.17;98.20;97641.53;2173379;81;20957;-83
2022/09/18 01:07:56;;;;;;;11.47;5.07;;;;;;;10.16;98.09;97633.72;2173255;81;20965;-83
2022/09/18 01:10:56;;;;;;;10.37;5.40;;;;;;;10.16;98.21;97635.88;2173500;81;20926;-82
2022/09/18 01:13:56;;;;;;;10.73;5.20;;;;;;;10.13;98.79;97629.38;2172999;81;20992;-84
2022/09/18 01:16:57;;;;;;;12.77;5.40;;;;;;;10.12;98.60;97626.78;2173618;81;20957;-83
2022/09/18 01:20:00;;;;;;;12.43;5.30;;;;;;;10.11;99.05;97627.66;2173528;81;21255;-83
2022/09/18 01:23:01;;;;;;;11.67;4.63;;;;;;;10.11;98.79;97626.36;2173966;81;20937;-83
2022/09/18 01:26:01;;;;;;;10.20;5.50;;;;;;;10.08;99.23;97628.54;2174048;81;20949;-83
2022/09/18 01:29:02;;;;;;;13.83;5.27;;;;;;;10.06;98.75;97628.98;2173709;81;20941;-82
2022/09/18 01:32:02;;;;;;;8.57;4.80;;;;;;;10.04;98.73;97630.73;2173699;81;20953;-84
2022/09/18 01:35:02;;;;;;;11.40;5.17;;;;;;;10.04;98.83;97635.09;2173672;81;20964;-82
2022/09/18 01:38:03;;;;;;;9.40;5.17;;;;;;;10.02;98.95;97639.44;2182087;81;21023;-83
2022/09/18 01:41:03;;;;;;;12.90;5.13;;;;;;;10.00;99.11;97642.49;2190377;81;20952;-82
2022/09/18 01:44:04;;;;;;;8.20;4.37;;;;;;;9.97;99.22;97638.59;2190292;81;20979;-82
2022/09/18 01:47:04;;;;;;;7.40;4.00;;;;;;;9.94;99.73;97640.78;2190544;81;20980;-82
2022/09/18 01:50:05;;;;;;;7.83;4.70;;;;;;;9.90;99.44;97638.63;2189858;81;20960;-82
2022/09/18 01:53:05;;;;;;;16.67;4.97;;;;;;;9.87;99.88;97639.95;2190178;81;20996;-82
2022/09/18 01:56:05;;;;;;;13.63;5.10;;;;;;;9.82;100.00;97639.09;2190105;81;21003;-82
2022/09/18 01:59:06;;;;;;;15.80;4.50;;;;;;;9.78;100.00;97636.52;2190048;81;21284;-83
2022/09/18 02:02:07;;;;;;;10.07;3.87;;;;;;;9.72;100.00;97640.02;2189711;81;20964;-83
2022/09/18 02:05:07;;;;;;;7.37;4.07;;;;;;;9.70;100.00;97638.28;2189620;81;20949;-82
2022/09/18 02:08:07;;;;;;;8.67;4.13;;;;;;;9.65;100.00;97635.70;2189730;81;20924;-83
2022/09/18 02:11:07;;;;;;;11.47;4.67;;;;;;;9.63;99.84;97635.27;2190150;81;20960;-83
2022/09/18 02:14:08;;;;;;;9.50;4.63;;;;;;;9.62;100.00;97634.41;2189820;81;21396;-82
2022/09/18 02:17:08;;;;;;;11.57;4.23;;;;;;;9.62;99.88;97633.54;2189904;81;20964;-83
2022/09/18 02:20:09;;;;;;;10.67;3.63;;;;;;;9.62;99.64;97633.54;2189950;81;20929;-82
2022/09/18 02:23:09;;;;;;;10.07;4.10;;;;;;;9.60;99.79;97632.67;2189753;81;20889;-83
2022/09/18 02:26:09;;;;;;;10.17;3.70;;;;;;;9.60;99.48;97637.89;2189942;81;20944;-82
2022/09/18 02:29:11;;;;;;;6.80;3.43;;;;;;;9.56;99.43;97633.99;2189994;81;20983;-81
2022/09/18 02:32:10;;;;;;;10.50;3.97;;;;;;;9.55;99.45;97636.61;2189766;81;20961;-82
2022/09/18 02:35:11;;;;;;;9.73;3.87;;;;;;;9.55;99.37;97642.68;2189700;81;20956;-83
2022/09/18 02:38:12;;;;;;;9.23;3.87;;;;;;;9.55;99.83;97647.02;2181360;81;21031;-83
2022/09/18 02:41:12;;;;;;;18.27;4.20;;;;;;;9.57;99.53;97649.19;2173436;81;20937;-83
2022/09/18 02:44:12;;;;;;;10.13;4.00;;;;;;;9.58;99.35;97644.41;2173096;81;21005;-82
2022/09/18 02:47:12;;;;;;;10.90;4.27;;;;;;;9.55;99.24;97641.38;2173289;81;20944;-82
2022/09/18 02:50:14;;;;;;;8.77;3.80;;;;;;;9.54;99.37;97641.38;2173277;81;20961;-82
2022/09/18 02:53:13;;;;;;;11.53;3.57;;;;;;;9.51;99.35;97640.92;2172946;82;21016;-83
2022/09/18 02:56:14;;;;;;;11.33;4.33;;;;;;;9.50;99.07;97643.09;2173214;81;20937;-83
2022/09/18 02:59:14;;;;;;;9.80;3.57;;;;;;;9.50;99.01;97639.19;2173372;81;20941;-83
2022/09/18 03:02:15;;;;;;;9.57;3.73;;;;;;;9.49;99.08;97637.45;2172986;81;20969;-84
2022/09/18 03:05:15;;;;;;;10.43;3.17;;;;;;;9.49;98.94;97637.89;2173283;81;20948;-83
2022/09/18 03:08:17;;;;;;;13.87;3.33;;;;;;;9.46;98.85;97633.56;2173145;81;20989;-83
2022/09/18 03:11:16;;;;;;;12.13;3.43;;;;;;;9.42;98.68;97634.88;2173456;81;20894;-83
2022/09/18 03:14:16;;;;;;;10.93;3.60;;;;;;;9.41;98.49;97637.91;2173389;81;20984;-83
2022/09/18 03:17:17;;;;;;;10.03;3.40;;;;;;;9.39;98.47;97641.39;2173395;81;21285;-84
2022/09/18 03:20:20;;;;;;;7.93;3.07;;;;;;;9.35;98.16;97639.67;2172907;82;21008;-83
2022/09/18 03:23:22;;;;;;;9.17;3.10;;;;;;;9.32;98.03;97639.24;2172430;82;20976;-83
2022/09/18 03:26:21;;;;;;;11.73;3.13;;;;;;;9.30;97.78;97639.68;2171712;81;21034;-83
2022/09/18 03:29:21;;;;;;;8.30;2.97;;;;;;;9.30;97.54;97647.93;2171864;81;20949;-83
2022/09/18 03:32:22;;;;;;;10.60;3.43;;;;;;;9.26;97.35;97647.06;2171772;81;20969;-83
2022/09/18 03:35:22;;;;;;;7.97;3.53;;;;;;;9.26;97.37;97652.27;2171412;81;21039;-83
2022/09/18 03:38:23;;;;;;;8.27;3.03;;;;;;;9.25;97.12;97655.75;2171992;82;21033;-83
2022/09/18 03:41:23;;;;;;;11.43;3.37;;;;;;;9.24;97.17;97650.11;2173519;81;20894;-82
2022/09/18 03:44:23;;;;;;;9.77;3.40;;;;;;;9.23;96.89;97654.89;2173070;81;21349;-84
2022/09/18 03:47:24;;;;;;;8.30;2.93;;;;;;;9.22;96.99;97655.75;2173480;81;20913;-83
2022/09/18 03:50:27;;;;;;;6.93;2.83;;;;;;;9.22;96.58;97660.97;2173641;82;20917;-83
2022/09/18 03:53:28;;;;;;;10.60;3.03;;;;;;;9.21;96.05;97660.53;2173524;82;21000;-82
2022/09/18 03:56:28;;;;;;;8.03;3.60;;;;;;;9.22;95.93;97660.97;2173613;81;20961;-83
2022/09/18 03:59:28;;;;;;;10.47;3.10;;;;;;;9.22;95.72;97664.88;2173473;81;21350;-82
2022/09/18 04:02:29;;;;;;;7.70;3.10;;;;;;;9.22;95.46;97670.08;2173321;81;20929;-82
2022/09/18 04:05:29;;;;;;;7.53;3.23;;;;;;;9.19;95.29;97670.08;2173546;81;20996;-82
2022/09/18 04:08:30;;;;;;;10.47;2.70;;;;;;;9.17;95.07;97679.62;2173461;81;20925;-84
2022/09/18 04:11:30;;;;;;;8.60;3.50;;;;;;;9.15;95.00;97677.03;2173527;81;21333;-83
2022/09/18 04:14:30;;;;;;;11.27;4.17;;;;;;;9.15;94.71;97681.37;2173121;81;20945;-83
2022/09/18 04:17:31;;;;;;;10.73;4.60;;;;;;;9.11;94.68;97686.14;2173704;81;20933;-83
2022/09/18 04:20:31;;;;;;;11.80;5.43;;;;;;;9.09;94.57;97688.75;2173434;81;20893;-83
2022/09/18 04:23:32;;;;;;;11.63;4.50;;;;;;;9.08;94.46;97692.66;2173273;81;20917;-83
2022/09/18 04:26:32;;;;;;;6.23;3.50;;;;;;;9.04;93.93;97685.72;2173582;81;20929;-82
2022/09/18 04:29:33;;;;;;;11.10;2.97;;;;;;;8.99;93.96;97693.53;2173369;81;20902;-83
2022/09/18 04:32:33;;;;;;;11.07;4.67;;;;;;;8.94;93.71;97690.92;2173237;81;20913;-83
2022/09/18 04:35:33;;;;;;;7.73;4.00;;;;;;;8.90;93.68;97694.40;2173505;82;20925;-83
2022/09/18 04:38:34;;;;;;;9.40;4.33;;;;;;;8.88;93.70;97700.03;2180646;81;21028;-83
2022/09/18 04:41:34;;;;;;;13.60;3.47;;;;;;;8.86;93.73;97699.17;2189872;81;21314;-82
2022/09/18 04:44:34;;;;;;;11.63;3.40;;;;;;;8.84;93.79;97698.73;2189723;81;21011;-82
2022/09/18 04:47:35;;;;;;;10.63;3.67;;;;;;;8.82;93.50;97704.37;2189968;81;20984;-83
2022/09/18 04:50:35;;;;;;;8.43;3.27;;;;;;;8.80;93.42;97707.41;2190033;81;21003;-81
2022/09/18 04:53:36;;;;;;;9.40;3.17;;;;;;;8.78;93.16;97715.20;2189824;81;21403;-81
2022/09/18 04:56:36;;;;;;;6.53;3.20;;;;;;;8.76;92.92;97706.53;2189830;81;20949;-82
2022/09/18 04:59:36;;;;;;;10.97;3.10;;;;;;;8.75;92.87;97703.93;2189994;81;20980;-80
2022/09/18 05:02:37;;;;;;;8.87;3.33;;;;;;;8.74;92.63;97713.47;2190039;81;20901;-81
2022/09/18 05:05:37;;;;;;;7.40;3.33;;;;;;;8.74;92.60;97710.00;2190058;81;20905;-81
2022/09/18 05:08:38;;;;;;;9.97;3.07;;;;;;;8.76;92.24;97714.34;2189879;81;20913;-80
2022/09/18 05:11:38;;;;;;;10.27;3.50;;;;;;;8.78;92.30;97712.61;2190230;81;20925;-82
2022/09/18 05:14:39;;;;;;;12.67;3.43;;;;;;;8.83;92.09;97706.97;2189695;81;20992;-82
2022/09/18 05:17:39;;;;;;;7.43;4.00;;;;;;;8.86;91.46;97710.88;2189830;81;21435;-81
2022/09/18 05:20:39;;;;;;;7.03;3.13;;;;;;;8.87;91.40;97710.01;2190060;81;20929;-80
2022/09/18 05:23:41;;;;;;;8.03;3.50;;;;;;;8.91;91.58;97705.23;2190074;81;20928;-81
2022/09/18 05:26:40;;;;;;;11.43;3.37;;;;;;;8.99;91.41;97710.45;2190116;81;20964;-81
2022/09/18 05:29:41;;;;;;;12.87;3.20;;;;;;;9.06;91.10;97706.97;2189723;81;21312;-80
2022/09/18 05:32:42;;;;;;;7.33;2.80;;;;;;;9.13;90.79;97713.05;2189956;81;20916;-81
2022/09/18 05:35:42;;;;;;;5.00;2.80;;;;;;;9.20;90.94;97713.47;2189978;81;21016;-81
2022/09/18 05:38:42;;;;;;;11.43;2.80;;;;;;;9.26;90.57;97715.64;2189728;81;21380;-81
2022/09/18 05:41:42;;;;;;;7.83;3.20;;;;;;;9.31;89.75;97715.63;2189885;81;20972;-81
2022/09/18 05:44:43;;;;;;;8.20;2.77;;;;;;;9.30;89.29;97718.23;2189849;81;21012;-80
2022/09/18 05:47:43;;;;;;;6.93;2.70;;;;;;;9.32;89.46;97721.27;2189895;81;20957;-81
2022/09/18 05:50:43;;;;;;;6.63;2.80;;;;;;;9.39;89.69;97715.63;2189838;81;20921;-80
2022/09/18 05:53:47;;;;;;;11.43;2.80;;;;;;;9.41;89.04;97716.05;2189654;81;20936;-80
2022/09/18 05:56:44;;;;;;;8.67;2.93;;;;;;;9.46;88.66;97718.21;2189864;81;20972;-80
2022/09/18 05:59:45;;;;;;;6.50;2.57;;;;;;;9.46;88.63;97715.61;2189686;81;20893;-80
2022/09/18 06:02:45;;;;;;;9.80;3.47;;;;;;;9.48;88.28;97717.77;2189840;81;20912;-80
2022/09/18 06:05:45;;;;;;;10.77;3.30;;;;;;;9.51;88.25;97715.60;2189826;81;21392;-80
2022/09/18 06:08:46;;;;;;;8.80;3.13;;;;;;;9.62;88.18;97720.82;2189760;81;20929;-80
2022/09/18 06:11:46;;;;;;;8.30;3.47;;;;;;;9.69;87.35;97719.50;2189905;81;20932;-79
2022/09/18 06:14:47;;;;;;;9.33;3.20;;;;;;;9.73;87.04;97723.83;2189503;81;21368;-79
2022/09/18 06:17:48;;;;;;;7.10;3.23;;;;;;;9.80;86.65;97716.86;2189450;81;21024;-79
2022/09/18 06:20:48;;;;;;;8.67;3.20;;;;;;;9.85;86.39;97719.02;2189769;81;20972;-79
2022/09/18 06:23:49;;;;;;;7.67;3.03;;;;;;;9.95;86.82;97720.72;2189749;81;20928;-80
2022/09/18 06:26:49;;;;;;;7.53;3.17;;;;;;;10.07;85.36;97730.23;2189990;81;20893;-80
2022/09/18 06:29:50;;;;;;;7.57;2.80;;;;;;;10.10;85.31;97715.44;2189822;81;21347;-80
2022/09/18 06:32:50;;;;;;;9.33;3.63;;;;;;;10.15;85.09;97733.23;2189726;81;20936;-80
2022/09/18 06:35:50;;;;;;;6.47;3.40;;;;;;;10.27;84.73;97737.56;2189862;81;20901;-80
2022/09/18 06:38:51;;;;;;;12.27;3.97;;;;;;;10.31;83.68;97730.59;2189750;81;20996;-80
2022/09/18 06:41:52;;;;;;;7.73;3.37;;;;;;;10.34;83.37;97734.05;2189808;81;21364;-80
2022/09/18 06:44:53;;;;;;;6.80;3.40;;;;;;;10.34;82.52;97734.49;2189600;81;21356;-81
2022/09/18 06:47:55;;;;;;;9.13;3.40;;;;;;;10.38;82.89;97738.81;2189739;81;20968;-81
2022/09/18 06:50:55;;;;;;;5.87;3.23;;;;;;;10.44;82.77;97733.60;2189928;81;20928;-80
2022/09/18 06:53:55;;;;;;;6.37;3.37;;;;;;;10.47;82.04;97736.20;2189697;81;21442;-81
2022/09/18 06:56:56;;;;;;;8.53;3.30;;;;;;;10.50;82.29;97740.95;2189672;81;20924;-80
2022/09/18 06:59:56;;;;;;;9.35;3.55;;;;;;;10.55;81.97;97733.55;2189781;81;20949;-80
2022/09/18 07:02:57;;;;;;;10.83;3.40;;;;;;;10.61;81.85;97730.46;2189839;81;20960;-80
2022/09/18 07:05:57;;;;;;;8.38;3.45;;;;;;;10.73;83.11;97741.27;2189781;81;21295;-79
2022/09/18 07:08:57;;;;;;;9.25;3.62;;;;;;;10.85;81.49;97736.82;2189732;81;20945;-80
2022/09/18 07:11:58;;;;;;;6.73;3.03;;;;;;;10.95;81.64;97733.71;2189948;81;20921;-80
2022/09/18 07:14:58;;;;;;;9.40;3.30;;;;;;;11.03;81.05;97743.66;2189437;81;21019;-80
2022/09/18 07:17:59;;;;;;;7.65;3.58;;;;;;;11.00;81.07;97737.16;2189730;81;20964;-80
2022/09/18 07:20:59;;;;;;;6.00;3.10;;;;;;;11.12;80.61;97738.80;2189949;81;20964;-80
2022/09/18 07:24:00;;;;;;;5.85;2.72;;;;;;;11.18;80.15;97739.62;2189725;81;20928;-80
2022/09/18 07:27:00;;;;;;;5.40;2.50;;;;;;;11.25;79.10;97744.80;2189631;81;20924;-80
2022/09/18 07:30:00;;;;;;;7.03;2.35;;;;;;;11.24;79.43;97746.98;2189772;81;20944;-80
2022/09/18 07:33:01;;;;;;;4.83;2.33;;;;;;;11.18;79.29;97741.36;2189805;81;20964;-81
2022/09/18 07:36:01;;;;;;;5.65;2.77;;;;;;;11.00;79.60;97739.77;2189896;81;20893;-80
2022/09/18 07:39:02;;;;;;;6.17;3.55;;;;;;;10.94;78.84;97749.38;2183648;81;21356;-80
2022/09/18 07:42:02;;;;;;;5.58;3.02;;;;;;;10.94;79.94;97735.02;2172654;81;20953;-79
2022/09/18 07:45:02;;;;;;;6.17;2.22;;;;;;;11.07;79.39;97747.98;2173238;81;20961;-80
2022/09/18 07:48:03;;;;;;;3.02;2.12;;;;;;;11.27;77.77;97745.23;2173204;81;20961;-80
2022/09/18 07:51:03;;;;;;;4.12;2.65;;;;;;;11.43;77.58;97742.92;2173207;81;21297;-80
2022/09/18 07:54:04;;;;;;;7.83;2.60;;;;;;;11.42;77.54;97746.41;2173187;81;20961;-80
2022/09/18 07:57:04;;;;;;;6.17;2.22;;;;;;;11.42;77.29;97748.16;2173473;81;20969;-80
2022/09/18 08:00:06;;;;;;;5.65;2.83;;;;;;;11.34;77.38;97753.89;2173257;81;21356;-80
2022/09/18 08:03:05;;;;;;;5.60;2.90;;;;;;;11.40;78.21;97754.70;2173340;81;20925;-79
2022/09/18 08:06:05;;;;;;;3.65;2.20;;;;;;;11.53;77.29;97750.23;2173455;82;20945;-80
2022/09/18 08:09:06;;;;;;;4.60;2.40;;;;;;;11.66;76.84;97752.29;2173429;81;21368;-80
2022/09/18 08:12:06;;;;;;;3.75;2.27;;;;;;;11.81;76.72;97743.02;2173318;81;20960;-80
2022/09/18 08:15:06;;;;;;;4.22;2.62;;;;;;;11.76;75.62;97746.08;2173092;82;20981;-80
2022/09/18 08:18:07;;;;;;;4.53;2.15;;;;;;;11.60;76.12;97751.91;2173469;81;20917;-80
2022/09/18 08:21:07;;;;;;;4.62;2.67;;;;;;;11.51;76.19;97756.35;2173418;81;20976;-80
2022/09/18 08:24:08;;;;;;;6.90;2.75;;;;;;;11.35;75.97;97756.93;2173406;81;20933;-80
2022/09/18 08:27:08;;;;;;;5.72;3.02;;;;;;;11.29;75.77;97759.16;2173518;81;20940;-80
2022/09/18 08:30:08;;;;;;;3.80;2.80;;;;;;;11.36;76.20;97759.53;2173135;82;21378;-80
2022/09/18 08:33:09;;;;;;;7.37;3.75;;;;;;;11.29;75.88;97763.07;2173430;81;20917;-79
2022/09/18 08:36:09;;;;;;;6.20;3.42;;;;;;;11.45;77.03;97755.53;2173404;81;20925;-79
2022/09/18 08:39:10;;;;;;;9.20;3.25;;;;;;;11.74;75.37;97747.84;2178827;81;21368;-80
2022/09/18 08:42:10;;;;;;;6.78;2.95;;;;;;;11.83;75.82;97747.78;2189862;81;20913;-80
2022/09/18 08:45:10;;;;;;;11.57;3.35;;;;;;;11.88;75.53;97752.52;2189553;81;20988;-80
2022/09/18 08:48:11;;;;;;;5.53;2.70;;;;;;;11.89;75.31;97745.55;2189870;81;20924;-80
2022/09/18 08:51:11;;;;;;;7.42;4.25;;;;;;;11.98;74.16;97745.44;2189920;81;21321;-80
2022/09/18 08:54:12;;;;;;;5.40;3.25;;;;;;;12.25;73.69;97749.52;2189545;81;20987;-80
2022/09/18 08:57:12;;;;;;;3.58;2.33;;;;;;;12.61;72.67;97744.25;2189886;81;20913;-80
2022/09/18 09:00:13;;;;;;;4.03;2.10;;;;;;;12.85;70.93;97749.58;2190026;81;20920;-80
2022/09/18 09:03:13;;;;;;;3.87;2.60;;;;;;;12.85;68.16;97745.66;2189793;81;21324;-80
2022/09/18 09:06:13;;;;;;;4.40;2.20;;;;;;;12.86;69.99;97738.22;2189858;81;20924;-80
2022/09/18 09:09:15;;;;;;;3.45;2.40;;;;;;;12.79;67.46;97740.06;2190088;81;20946;-79
2022/09/18 09:12:14;;;;;;;4.47;2.20;;;;;;;12.79;69.45;97736.58;2189805;81;20912;-79
2022/09/18 09:15:14;;;;;;;4.47;2.40;;;;;;;12.84;69.00;97738.69;2189744;81;21027;-79
2022/09/18 09:18:15;;;;;;;3.00;2.10;;;;;;;12.66;69.38;97743.74;2190020;81;20999;-79
2022/09/18 09:21:15;;;;;;;4.33;2.35;;;;;;;12.32;69.98;97757.72;2189734;81;21284;-79
2022/09/18 09:24:19;;;;;;;2.47;2.00;;;;;;;11.95;71.89;97752.87;2189792;81;20948;-79
2022/09/18 09:27:16;;;;;;;4.72;2.47;;;;;;;11.60;74.61;97749.30;2190022;81;20948;-79
2022/09/18 09:30:16;;;;;;;2.62;1.87;;;;;;;11.64;75.59;97751.44;2189830;81;20916;-79
2022/09/18 09:33:17;;;;;;;2.20;1.95;;;;;;;11.88;74.94;97747.30;2189864;81;21391;-79
2022/09/18 09:36:17;;;;;;;4.28;1.82;;;;;;;12.22;74.83;97735.16;2189810;81;20940;-79
2022/09/18 09:39:18;;;;;;;2.22;1.95;;;;;;;12.63;73.89;97734.17;2184862;81;20969;-80
2022/09/18 09:42:20;;;;;;;3.83;2.08;;;;;;;12.73;71.35;97738.84;2173159;81;21373;-80
2022/09/18 09:45:18;;;;;;;4.20;1.80;;;;;;;12.66;71.07;97746.36;2173206;81;20976;-80
2022/09/18 09:48:19;;;;;;;4.03;2.02;;;;;;;12.68;72.13;97737.59;2173376;81;20967;-79
2022/09/18 09:51:20;;;;;;;2.15;1.90;;;;;;;12.74;72.18;97741.88;2173082;81;21333;-80
2022/09/18 09:54:20;;;;;;;5.12;3.35;;;;;;;12.85;71.63;97747.83;2173241;81;20999;-79
2022/09/18 09:57:20;;;;;;;2.75;2.20;;;;;;;13.02;72.57;97743.67;2173140;81;20905;-79
2022/09/18 10:00:22;;;;;;;2.67;2.10;;;;;;;13.33;71.02;97750.64;2173356;81;20912;-80
2022/09/18 10:03:21;;;;;;;2.52;2.00;;;;;;;13.43;69.95;97746.11;2173282;81;20929;-79
2022/09/18 10:06:21;;;;;;;2.50;2.12;;;;;;;13.36;69.79;97747.97;2173188;81;20972;-80
2022/09/18 10:09:22;;;;;;;7.10;2.52;;;;;;;13.14;70.91;97746.55;2173297;81;20913;-80
2022/09/18 10:12:22;;;;;;;5.78;2.50;;;;;;;12.96;70.84;97756.39;2173389;81;20893;-80
2022/09/18 10:15:23;;;;;;;5.05;2.40;;;;;;;12.85;71.84;97752.20;2173202;81;21032;-80
2022/09/18 10:18:23;;;;;;;4.72;3.02;;;;;;;12.75;72.53;97748.84;2173210;81;20972;-80
2022/09/18 10:21:23;;;;;;;3.25;2.75;;;;;;;12.73;72.23;97761.96;2173461;81;20912;-81
2022/09/18 10:24:24;;;;;;;6.65;2.65;;;;;;;12.64;72.42;97754.23;2173388;81;20929;-80
2022/09/18 10:27:24;;;;;;;2.98;2.72;;;;;;;12.59;72.79;97752.56;2173151;81;20953;-80
2022/09/18 10:30:25;;;;;;;3.17;2.87;;;;;;;12.68;73.15;97757.67;2173227;81;20937;-80
2022/09/18 10:33:25;;;;;;;2.52;2.33;;;;;;;12.78;72.14;97763.65;2173451;81;20991;-80
2022/09/18 10:36:26;;;;;;;3.98;2.87;;;;;;;12.83;72.12;97761.39;2172964;81;21325;-80
2022/09/18 10:39:26;;;;;;;2.62;2.40;;;;;;;12.99;71.90;97762.03;2173146;81;21001;-80
2022/09/18 10:42:26;;;;;;;2.80;2.17;;;;;;;13.30;70.41;97765.97;2173220;81;20943;-80
2022/09/18 10:45:27;;;;;;;2.72;2.20;;;;;;;13.42;69.92;97758.34;2173215;81;20984;-80
2022/09/18 10:48:27;;;;;;;3.70;2.60;;;;;;;13.50;70.16;97767.39;2173390;81;21325;-80
2022/09/18 10:51:28;;;;;;;4.37;2.47;;;;;;;13.64;69.33;97766.70;2173183;81;20964;-79
2022/09/18 10:54:30;;;;;;;3.40;2.80;;;;;;;13.60;67.24;97770.28;2173484;81;20973;-80
2022/09/18 10:57:28;;;;;;;2.45;2.00;;;;;;;13.50;68.47;97764.77;2173155;81;21290;-79
2022/09/18 11:00:29;;;;;;;2.92;1.62;;;;;;;13.52;67.14;97752.50;2173037;81;20929;-79
2022/09/18 11:03:29;;;;;;;2.75;1.80;;;;;;;13.54;67.05;97755.52;2173252;82;20945;-81
2022/09/18 11:06:30;;;;;;;2.08;1.90;;;;;;;13.55;67.63;97755.07;2173301;81;20893;-80
2022/09/18 11:09:30;;;;;;;2.10;1.90;;;;;;;13.64;67.73;97753.59;2173259;81;21281;-81
2022/09/18 11:12:30;;;;;;;2.10;1.90;;;;;;;13.85;66.12;97757.14;2173176;81;20910;-80
2022/09/18 11:15:31;;;;;;;2.37;1.70;;;;;;;13.85;65.36;97750.59;2173156;81;20989;-80
2022/09/18 11:18:31;;;;;;;2.62;1.90;;;;;;;13.83;66.06;97746.27;2173318;81;20961;-81
2022/09/18 11:21:32;;;;;;;1.70;1.60;;;;;;;13.92;65.60;97750.92;2172826;81;21320;-80
2022/09/18 11:24:32;;;;;;;1.57;1.40;;;;;;;13.99;65.91;97752.53;2173095;81;20954;-80
2022/09/18 11:27:32;;;;;;;2.17;1.80;;;;;;;14.14;65.22;97750.51;2173499;81;20921;-80
2022/09/18 11:30:33;;;;;;;2.12;1.90;;;;;;;14.38;65.34;97756.58;2173357;81;21353;-80
2022/09/18 11:33:33;;;;;;;3.17;1.77;;;;;;;14.37;63.78;97760.09;2173338;81;20953;-80
2022/09/18 11:36:34;;;;;;;1.82;1.37;;;;;;;14.29;64.12;97758.08;2173460;81;20922;-79
2022/09/18 11:39:34;;;;;;;1.32;1.22;;;;;;;14.26;62.62;97756.83;2177068;81;21028;-80
2022/09/18 11:42:34;;;;;;;1.50;1.00;;;;;;;14.39;61.99;97758.30;2189976;81;20893;-80
2022/09/18 11:45:35;;;;;;;2.17;1.20;;;;;;;14.45;61.64;97751.65;2189853;81;20964;-79
2022/09/18 11:48:35;;;;;;;2.85;1.50;;;;;;;14.47;61.99;97751.17;2190029;81;20893;-79
2022/09/18 11:51:36;;;;;;;1.65;1.40;;;;;;;14.59;61.65;97745.66;2191174;81;21292;-80
2022/09/18 11:54:36;;;;;;;1.57;1.32;;;;;;;14.61;60.98;97747.80;2190042;81;21011;-79
2022/09/18 11:57:36;;;;;;;2.37;1.67;;;;;;;14.67;61.05;97758.62;2189888;81;20989;-79
2022/09/18 12:00:37;;;;;;;3.10;1.98;;;;;;;14.48;61.57;97752.03;2189778;81;20948;-80
2022/09/18 12:03:37;;;;;;;2.08;1.82;;;;;;;14.31;61.33;97765.47;2189905;81;20929;-80
2022/09/18 12:06:38;;;;;;;2.55;1.90;;;;;;;13.95;62.15;97763.98;2189950;81;21019;-80
2022/09/18 12:09:38;;;;;;;2.40;1.92;;;;;;;13.69;63.37;97763.56;2189978;81;21304;-80
2022/09/18 12:12:39;;;;;;;2.12;1.92;;;;;;;13.60;63.42;97765.03;2189948;81;20924;-80
2022/09/18 12:15:39;;;;;;;1.10;1.00;;;;;;;13.57;63.65;97771.20;2190019;81;20992;-80
2022/09/18 12:18:41;;;;;;;0.80;0.80;;;;;;;13.58;62.56;97771.61;2189553;81;20952;-80
2022/09/18 12:21:40;;;;;;;1.60;1.50;;;;;;;13.61;62.67;97772.01;2190123;81;21336;-80
2022/09/18 12:24:40;;;;;;;1.67;1.57;;;;;;;13.81;63.92;97772.52;2190000;81;21292;-80
2022/09/18 12:27:40;;;;;;;1.70;1.40;;;;;;;14.03;63.01;97784.38;2189896;81;20932;-81
2022/09/18 12:30:41;;;;;;;1.65;1.55;;;;;;;14.12;62.78;97785.10;2190110;81;20963;-81
2022/09/18 12:33:41;;;;;;;1.72;1.50;;;;;;;14.09;62.84;97786.47;2190136;81;20944;-80
2022/09/18 12:36:42;;;;;;;1.60;1.50;;;;;;;13.98;62.39;97777.05;2189964;81;21328;-80
2022/09/18 12:39:42;;;;;;;1.95;1.70;;;;;;;13.92;62.35;97781.09;2189752;81;21019;-80
2022/09/18 12:42:43;;;;;;;1.85;1.67;;;;;;;13.91;63.69;97776.73;2190052;81;20932;-80
2022/09/18 12:45:43;;;;;;;2.08;1.98;;;;;;;13.88;63.08;97771.55;2189691;81;20992;-80
2022/09/18 12:48:46;;;;;;;2.58;2.10;;;;;;;13.70;63.66;97778.41;2189912;81;21309;-80
2022/09/18 12:51:44;;;;;;;2.17;1.98;;;;;;;13.55;64.10;97775.59;2189588;81;20913;-80
2022/09/18 12:54:44;;;;;;;2.25;2.05;;;;;;;13.30;64.84;97784.31;2189521;81;20987;-80
2022/09/18 12:57:45;;;;;;;3.02;2.20;;;;;;;13.09;66.03;97793.78;2190066;81;20920;-80
2022/09/18 13:00:46;;;;;;;2.17;2.02;;;;;;;12.97;66.49;97789.55;2189775;81;21289;-80
2022/09/18 13:03:45;;;;;;;3.40;2.00;;;;;;;12.82;65.66;97793.70;2189876;81;20932;-80
2022/09/18 13:06:46;;;;;;;4.33;2.67;;;;;;;12.75;66.50;97795.53;2190155;81;20965;-80
2022/09/18 13:09:46;;;;;;;9.25;6.17;;;;;;;12.95;66.82;97800.94;2189797;81;20908;-80
2022/09/18 13:12:47;;;;;;;4.45;1.92;;;;;;;13.17;66.71;97802.87;2189813;81;20960;-80
2022/09/18 13:15:47;;;;;;;2.30;2.10;;;;;;;13.30;66.84;97795.24;2189750;81;21046;-80
2022/09/18 13:18:48;;;;;;;2.52;2.33;;;;;;;13.34;66.60;97797.79;2190020;81;20965;-80
2022/09/18 13:21:50;;;;;;;3.72;3.22;;;;;;;13.29;66.85;97799.61;2189737;81;20928;-80
2022/09/18 13:24:49;;;;;;;2.58;2.00;;;;;;;13.15;66.69;97810.72;2189916;81;20901;-80
2022/09/18 13:27:49;;;;;;;9.18;3.10;;;;;;;12.99;66.83;97810.48;2189813;81;21273;-79
2022/09/18 13:30:50;;;;;;;2.58;2.20;;;;;;;13.01;67.51;97806.13;2189997;81;21008;-80
2022/09/18 13:33:50;;;;;;;3.08;2.20;;;;;;;13.20;66.42;97811.55;2189847;81;21352;-80
2022/09/18 13:36:51;;;;;;;3.17;2.42;;;;;;;13.32;66.74;97803.50;2189698;81;20932;-80
2022/09/18 13:39:51;;;;;;;3.35;1.90;;;;;;;13.39;66.28;97800.34;2186689;81;20988;-80
2022/09/18 13:42:52;;;;;;;3.62;2.25;;;;;;;13.24;65.61;97809.30;2172640;81;20913;-80
2022/09/18 13:45:52;;;;;;;9.08;8.18;;;;;;;13.16;66.17;97811.14;2173195;81;21356;-80
2022/09/18 13:48:55;;;;;;;4.65;4.25;;;;;;;13.35;64.96;97807.38;2173099;81;20925;-80
2022/09/18 13:51:53;;;;;;;3.55;1.90;;;;;;;13.56;64.76;97810.55;2173346;81;20921;-80
2022/09/18 13:54:53;;;;;;;2.52;2.33;;;;;;;13.71;62.82;97795.87;2173104;81;21329;-80
2022/09/18 13:57:53;;;;;;;3.02;2.33;;;;;;;13.88;63.72;97804.34;2172815;81;20961;-79
2022/09/18 14:00:54;;;;;;;3.83;2.58;;;;;;;13.80;61.87;97810.13;2173293;81;20933;-79
2022/09/18 14:03:54;;;;;;;4.20;2.10;;;;;;;13.79;62.02;97808.84;2173242;81;20920;-79
2022/09/18 14:06:55;;;;;;;4.08;2.10;;;;;;;13.63;62.11;97811.73;2173025;81;20973;-80
2022/09/18 14:09:55;;;;;;;2.80;2.15;;;;;;;13.35;62.56;97810.00;2173536;81;20977;-80